sensor_id;sensor_type;location;lat;lon;timestamp;P1;durP1;ratioP1;P2;durP2;ratioP2
5077;SDS011;2557;51.390;7.494;2023-07-08T00:01:11;6.60;;;4.73;;
5077;SDS011;2557;51.390;7.494;2023-07-08T00:03:38;4.67;;;4.27;;
5077;SDS011;2557;51.390;7.494;2023-07-08T00:06:04;5.60;;;4.47;;
5077;SDS011;2557;51.390;7.494;2023-07-08T00:08:30;6.07;;;4.40;;
5077;SDS011;2557;51.390;7.494;2023-07-08T00:10:56;4.50;;;4.10;;
5077;SDS011;2557;51.390;7.494;2023-07-08T00:13:22;5.30;;;4.73;;
5077;SDS011;2557;51.390;7.494;2023-07-08T00:15:48;6.97;;;4.70;;
5077;SDS011;2557;51.390;7.494;2023-07-08T00:18:15;5.70;;;5.10;;
5077;SDS011;2557;51.390;7.494;2023-07-08T00:20:42;8.33;;;4.23;;
5077;SDS011;2557;51.390;7.494;2023-07-08T00:23:09;6.70;;;4.27;;
5077;SDS011;2557;51.390;7.494;2023-07-08T00:25:35;6.73;;;4.87;;
5077;SDS011;2557;51.390;7.494;2023-07-08T00:28:02;4.77;;;4.30;;
5077;SDS011;2557;51.390;7.494;2023-07-08T00:30:29;5.80;;;5.10;;
5077;SDS011;2557;51.390;7.494;2023-07-08T00:32:56;5.00;;;4.50;;
5077;SDS011;2557;51.390;7.494;2023-07-08T00:37:49;7.97;;;5.80;;
5077;SDS011;2557;51.390;7.494;2023-07-08T00:40:18;7.00;;;4.87;;
5077;SDS011;2557;51.390;7.494;2023-07-08T00:42:44;7.57;;;4.40;;
5077;SDS011;2557;51.390;7.494;2023-07-08T00:45:15;5.43;;;4.23;;
5077;SDS011;2557;51.390;7.494;2023-07-08T00:47:43;5.50;;;5.07;;
5077;SDS011;2557;51.390;7.494;2023-07-08T00:50:10;5.63;;;4.97;;
5077;SDS011;2557;51.390;7.494;2023-07-08T00:52:36;8.70;;;5.30;;
5077;SDS011;2557;51.390;7.494;2023-07-08T00:55:04;8.27;;;4.90;;
5077;SDS011;2557;51.390;7.494;2023-07-08T00:57:32;5.37;;;4.97;;
5077;SDS011;2557;51.390;7.494;2023-07-08T01:00:03;5.50;;;5.00;;
5077;SDS011;2557;51.390;7.494;2023-07-08T01:02:29;5.37;;;4.60;;
5077;SDS011;2557;51.390;7.494;2023-07-08T01:05:10;5.60;;;4.87;;
5077;SDS011;2557;51.390;7.494;2023-07-08T01:07:37;5.03;;;4.53;;
5077;SDS011;2557;51.390;7.494;2023-07-08T01:10:06;11.67;;;4.93;;
5077;SDS011;2557;51.390;7.494;2023-07-08T01:12:37;16.33;;;5.03;;
5077;SDS011;2557;51.390;7.494;2023-07-08T01:15:05;13.13;;;5.20;;
5077;SDS011;2557;51.390;7.494;2023-07-08T01:17:32;7.77;;;4.50;;
5077;SDS011;2557;51.390;7.494;2023-07-08T01:20:05;4.53;;;4.20;;
5077;SDS011;2557;51.390;7.494;2023-07-08T01:22:32;5.03;;;4.63;;
5077;SDS011;2557;51.390;7.494;2023-07-08T01:25:00;4.80;;;4.23;;
5077;SDS011;2557;51.390;7.494;2023-07-08T01:27:28;4.93;;;4.27;;
5077;SDS011;2557;51.390;7.494;2023-07-08T01:29:55;5.60;;;4.50;;
5077;SDS011;2557;51.390;7.494;2023-07-08T01:32:22;4.97;;;4.47;;
5077;SDS011;2557;51.390;7.494;2023-07-08T01:34:48;5.40;;;4.77;;
5077;SDS011;2557;51.390;7.494;2023-07-08T01:37:30;6.93;;;4.73;;
5077;SDS011;2557;51.390;7.494;2023-07-08T01:39:57;4.67;;;4.30;;
5077;SDS011;2557;51.390;7.494;2023-07-08T01:42:23;4.93;;;4.20;;
5077;SDS011;2557;51.390;7.494;2023-07-08T01:44:49;4.60;;;4.20;;
5077;SDS011;2557;51.390;7.494;2023-07-08T01:47:16;4.70;;;4.30;;
5077;SDS011;2557;51.390;7.494;2023-07-08T01:49:45;5.77;;;5.27;;
5077;SDS011;2557;51.390;7.494;2023-07-08T01:52:12;7.73;;;4.40;;
5077;SDS011;2557;51.390;7.494;2023-07-08T01:54:38;5.90;;;5.03;;
5077;SDS011;2557;51.390;7.494;2023-07-08T01:57:04;5.77;;;4.80;;
5077;SDS011;2557;51.390;7.494;2023-07-08T01:59:30;6.17;;;4.50;;
5077;SDS011;2557;51.390;7.494;2023-07-08T02:01:56;9.50;;;4.20;;
5077;SDS011;2557;51.390;7.494;2023-07-08T02:04:23;4.53;;;4.13;;
5077;SDS011;2557;51.390;7.494;2023-07-08T02:06:53;5.87;;;4.10;;
5077;SDS011;2557;51.390;7.494;2023-07-08T02:09:19;5.10;;;4.70;;
5077;SDS011;2557;51.390;7.494;2023-07-08T02:11:45;8.13;;;4.50;;
5077;SDS011;2557;51.390;7.494;2023-07-08T02:14:11;4.87;;;4.20;;
5077;SDS011;2557;51.390;7.494;2023-07-08T02:16:37;7.13;;;5.03;;
5077;SDS011;2557;51.390;7.494;2023-07-08T02:19:03;5.60;;;5.10;;
5077;SDS011;2557;51.390;7.494;2023-07-08T02:21:29;5.30;;;4.63;;
5077;SDS011;2557;51.390;7.494;2023-07-08T02:23:56;8.13;;;4.17;;
5077;SDS011;2557;51.390;7.494;2023-07-08T02:26:22;11.90;;;5.90;;
5077;SDS011;2557;51.390;7.494;2023-07-08T02:28:48;7.77;;;4.77;;
5077;SDS011;2557;51.390;7.494;2023-07-08T02:31:14;4.93;;;3.90;;
5077;SDS011;2557;51.390;7.494;2023-07-08T02:33:40;4.97;;;4.57;;
5077;SDS011;2557;51.390;7.494;2023-07-08T02:36:06;5.10;;;4.70;;
5077;SDS011;2557;51.390;7.494;2023-07-08T02:38:32;5.87;;;5.33;;
5077;SDS011;2557;51.390;7.494;2023-07-08T02:40:59;5.73;;;4.67;;
5077;SDS011;2557;51.390;7.494;2023-07-08T02:43:25;8.60;;;4.80;;
5077;SDS011;2557;51.390;7.494;2023-07-08T02:45:51;6.37;;;4.33;;
5077;SDS011;2557;51.390;7.494;2023-07-08T02:48:18;6.17;;;4.03;;
5077;SDS011;2557;51.390;7.494;2023-07-08T02:50:44;5.07;;;4.67;;
5077;SDS011;2557;51.390;7.494;2023-07-08T02:53:10;6.23;;;3.93;;
5077;SDS011;2557;51.390;7.494;2023-07-08T02:55:36;6.40;;;4.63;;
5077;SDS011;2557;51.390;7.494;2023-07-08T02:58:02;11.37;;;4.70;;
5077;SDS011;2557;51.390;7.494;2023-07-08T03:00:28;4.37;;;3.67;;
5077;SDS011;2557;51.390;7.494;2023-07-08T03:02:54;4.67;;;4.17;;
5077;SDS011;2557;51.390;7.494;2023-07-08T03:05:20;5.13;;;4.63;;
5077;SDS011;2557;51.390;7.494;2023-07-08T03:07:46;6.77;;;5.00;;
5077;SDS011;2557;51.390;7.494;2023-07-08T03:10:12;4.20;;;3.80;;
5077;SDS011;2557;51.390;7.494;2023-07-08T03:12:38;5.73;;;5.07;;
5077;SDS011;2557;51.390;7.494;2023-07-08T03:15:04;7.13;;;4.70;;
5077;SDS011;2557;51.390;7.494;2023-07-08T03:17:30;6.30;;;4.30;;
5077;SDS011;2557;51.390;7.494;2023-07-08T03:19:56;8.63;;;4.43;;
5077;SDS011;2557;51.390;7.494;2023-07-08T03:22:22;5.10;;;4.60;;
5077;SDS011;2557;51.390;7.494;2023-07-08T03:24:48;5.10;;;4.50;;
5077;SDS011;2557;51.390;7.494;2023-07-08T03:27:15;7.33;;;4.60;;
5077;SDS011;2557;51.390;7.494;2023-07-08T03:29:41;5.83;;;5.33;;
5077;SDS011;2557;51.390;7.494;2023-07-08T03:32:08;4.47;;;4.17;;
5077;SDS011;2557;51.390;7.494;2023-07-08T03:34:35;5.13;;;4.63;;
5077;SDS011;2557;51.390;7.494;2023-07-08T03:37:01;5.00;;;4.50;;
5077;SDS011;2557;51.390;7.494;2023-07-08T03:39:27;4.90;;;4.50;;
5077;SDS011;2557;51.390;7.494;2023-07-08T03:41:53;4.67;;;4.30;;
5077;SDS011;2557;51.390;7.494;2023-07-08T03:44:19;4.77;;;4.37;;
5077;SDS011;2557;51.390;7.494;2023-07-08T03:46:46;7.43;;;4.93;;
5077;SDS011;2557;51.390;7.494;2023-07-08T03:49:16;6.20;;;5.00;;
5077;SDS011;2557;51.390;7.494;2023-07-08T03:51:46;4.73;;;4.33;;
5077;SDS011;2557;51.390;7.494;2023-07-08T03:54:13;6.20;;;5.20;;
5077;SDS011;2557;51.390;7.494;2023-07-08T03:56:39;5.67;;;5.17;;
5077;SDS011;2557;51.390;7.494;2023-07-08T03:59:05;5.43;;;4.50;;
5077;SDS011;2557;51.390;7.494;2023-07-08T04:01:31;5.07;;;4.67;;
5077;SDS011;2557;51.390;7.494;2023-07-08T04:03:58;5.93;;;4.80;;
5077;SDS011;2557;51.390;7.494;2023-07-08T04:06:24;5.07;;;4.67;;
5077;SDS011;2557;51.390;7.494;2023-07-08T04:08:50;4.93;;;4.40;;
5077;SDS011;2557;51.390;7.494;2023-07-08T04:11:18;5.73;;;5.23;;
5077;SDS011;2557;51.390;7.494;2023-07-08T04:13:44;9.00;;;5.60;;
5077;SDS011;2557;51.390;7.494;2023-07-08T04:16:14;4.87;;;4.43;;
5077;SDS011;2557;51.390;7.494;2023-07-08T04:18:41;4.97;;;4.57;;
5077;SDS011;2557;51.390;7.494;2023-07-08T04:21:07;5.17;;;4.67;;
5077;SDS011;2557;51.390;7.494;2023-07-08T04:23:33;8.17;;;4.07;;
5077;SDS011;2557;51.390;7.494;2023-07-08T04:25:59;5.87;;;4.13;;
5077;SDS011;2557;51.390;7.494;2023-07-08T04:28:25;6.53;;;4.33;;
5077;SDS011;2557;51.390;7.494;2023-07-08T04:30:51;9.27;;;4.40;;
5077;SDS011;2557;51.390;7.494;2023-07-08T04:33:17;6.60;;;5.90;;
5077;SDS011;2557;51.390;7.494;2023-07-08T04:35:43;6.37;;;5.70;;
5077;SDS011;2557;51.390;7.494;2023-07-08T04:38:14;7.57;;;4.97;;
5077;SDS011;2557;51.390;7.494;2023-07-08T04:40:41;7.93;;;4.70;;
5077;SDS011;2557;51.390;7.494;2023-07-08T04:43:07;5.10;;;4.37;;
5077;SDS011;2557;51.390;7.494;2023-07-08T04:45:35;4.97;;;4.40;;
5077;SDS011;2557;51.390;7.494;2023-07-08T04:48:02;4.47;;;4.07;;
5077;SDS011;2557;51.390;7.494;2023-07-08T04:50:33;5.23;;;4.80;;
5077;SDS011;2557;51.390;7.494;2023-07-08T04:52:59;4.67;;;4.17;;
5077;SDS011;2557;51.390;7.494;2023-07-08T04:55:27;6.03;;;4.90;;
5077;SDS011;2557;51.390;7.494;2023-07-08T04:57:53;5.77;;;4.23;;
5077;SDS011;2557;51.390;7.494;2023-07-08T05:00:19;7.77;;;4.73;;
5077;SDS011;2557;51.390;7.494;2023-07-08T05:02:45;5.90;;;5.20;;
5077;SDS011;2557;51.390;7.494;2023-07-08T05:05:11;8.70;;;4.80;;
5077;SDS011;2557;51.390;7.494;2023-07-08T05:07:37;5.37;;;4.83;;
5077;SDS011;2557;51.390;7.494;2023-07-08T05:10:03;5.30;;;4.80;;
5077;SDS011;2557;51.390;7.494;2023-07-08T05:12:29;5.13;;;4.73;;
5077;SDS011;2557;51.390;7.494;2023-07-08T05:14:55;5.30;;;4.80;;
5077;SDS011;2557;51.390;7.494;2023-07-08T05:17:21;5.00;;;4.53;;
5077;SDS011;2557;51.390;7.494;2023-07-08T05:19:49;5.53;;;4.57;;
5077;SDS011;2557;51.390;7.494;2023-07-08T05:22:16;7.53;;;5.30;;
5077;SDS011;2557;51.390;7.494;2023-07-08T05:24:43;5.57;;;5.00;;
5077;SDS011;2557;51.390;7.494;2023-07-08T05:27:09;12.50;;;5.07;;
5077;SDS011;2557;51.390;7.494;2023-07-08T05:29:38;6.40;;;5.40;;
5077;SDS011;2557;51.390;7.494;2023-07-08T05:32:04;5.27;;;4.80;;
5077;SDS011;2557;51.390;7.494;2023-07-08T05:34:30;4.70;;;4.40;;
5077;SDS011;2557;51.390;7.494;2023-07-08T05:36:56;6.33;;;5.73;;
5077;SDS011;2557;51.390;7.494;2023-07-08T05:39:22;7.60;;;4.70;;
5077;SDS011;2557;51.390;7.494;2023-07-08T05:41:48;5.43;;;4.87;;
5077;SDS011;2557;51.390;7.494;2023-07-08T05:44:14;5.37;;;4.40;;
5077;SDS011;2557;51.390;7.494;2023-07-08T05:46:40;4.67;;;4.27;;
5077;SDS011;2557;51.390;7.494;2023-07-08T05:49:06;5.13;;;4.40;;
5077;SDS011;2557;51.390;7.494;2023-07-08T05:51:33;5.83;;;3.87;;
5077;SDS011;2557;51.390;7.494;2023-07-08T05:54:00;8.80;;;5.20;;
5077;SDS011;2557;51.390;7.494;2023-07-08T05:56:26;5.27;;;4.40;;
5077;SDS011;2557;51.390;7.494;2023-07-08T05:58:52;4.63;;;4.20;;
5077;SDS011;2557;51.390;7.494;2023-07-08T06:01:18;4.90;;;4.50;;
5077;SDS011;2557;51.390;7.494;2023-07-08T06:03:43;5.93;;;4.27;;
5077;SDS011;2557;51.390;7.494;2023-07-08T06:06:09;5.60;;;5.20;;
5077;SDS011;2557;51.390;7.494;2023-07-08T06:08:35;5.30;;;4.67;;
5077;SDS011;2557;51.390;7.494;2023-07-08T06:11:01;5.70;;;5.10;;
5077;SDS011;2557;51.390;7.494;2023-07-08T06:13:27;4.70;;;4.30;;
5077;SDS011;2557;51.390;7.494;2023-07-08T06:15:53;9.03;;;4.60;;
5077;SDS011;2557;51.390;7.494;2023-07-08T06:18:19;8.70;;;4.67;;
5077;SDS011;2557;51.390;7.494;2023-07-08T06:20:55;7.20;;;5.07;;
5077;SDS011;2557;51.390;7.494;2023-07-08T06:23:21;5.60;;;4.40;;
5077;SDS011;2557;51.390;7.494;2023-07-08T06:25:47;6.20;;;4.70;;
5077;SDS011;2557;51.390;7.494;2023-07-08T06:28:14;4.80;;;4.40;;
5077;SDS011;2557;51.390;7.494;2023-07-08T06:30:40;6.60;;;4.73;;
5077;SDS011;2557;51.390;7.494;2023-07-08T06:33:06;5.10;;;4.60;;
5077;SDS011;2557;51.390;7.494;2023-07-08T06:35:32;5.37;;;4.87;;
5077;SDS011;2557;51.390;7.494;2023-07-08T06:37:58;4.87;;;4.37;;
5077;SDS011;2557;51.390;7.494;2023-07-08T06:40:24;5.07;;;4.23;;
5077;SDS011;2557;51.390;7.494;2023-07-08T06:42:50;4.50;;;4.07;;
5077;SDS011;2557;51.390;7.494;2023-07-08T06:45:16;5.07;;;4.57;;
5077;SDS011;2557;51.390;7.494;2023-07-08T06:47:42;8.83;;;4.73;;
5077;SDS011;2557;51.390;7.494;2023-07-08T06:50:08;6.13;;;4.37;;
5077;SDS011;2557;51.390;7.494;2023-07-08T06:52:34;4.70;;;4.30;;
5077;SDS011;2557;51.390;7.494;2023-07-08T06:55:02;6.63;;;5.00;;
5077;SDS011;2557;51.390;7.494;2023-07-08T06:57:28;4.90;;;4.43;;
5077;SDS011;2557;51.390;7.494;2023-07-08T06:59:54;8.10;;;5.10;;
5077;SDS011;2557;51.390;7.494;2023-07-08T07:02:20;5.50;;;5.00;;
5077;SDS011;2557;51.390;7.494;2023-07-08T07:04:46;7.60;;;4.60;;
5077;SDS011;2557;51.390;7.494;2023-07-08T07:07:12;5.40;;;4.93;;
5077;SDS011;2557;51.390;7.494;2023-07-08T07:09:38;5.53;;;5.03;;
5077;SDS011;2557;51.390;7.494;2023-07-08T07:12:05;6.27;;;5.57;;
5077;SDS011;2557;51.390;7.494;2023-07-08T07:14:31;5.10;;;4.60;;
5077;SDS011;2557;51.390;7.494;2023-07-08T07:16:58;4.83;;;4.27;;
5077;SDS011;2557;51.390;7.494;2023-07-08T07:19:24;7.37;;;4.60;;
5077;SDS011;2557;51.390;7.494;2023-07-08T07:21:50;5.37;;;4.83;;
5077;SDS011;2557;51.390;7.494;2023-07-08T07:24:16;8.40;;;5.20;;
5077;SDS011;2557;51.390;7.494;2023-07-08T07:26:42;5.40;;;4.90;;
5077;SDS011;2557;51.390;7.494;2023-07-08T07:29:08;5.97;;;4.90;;
5077;SDS011;2557;51.390;7.494;2023-07-08T07:31:34;5.87;;;5.37;;
5077;SDS011;2557;51.390;7.494;2023-07-08T07:34:00;5.50;;;4.80;;
5077;SDS011;2557;51.390;7.494;2023-07-08T07:36:26;5.63;;;4.97;;
5077;SDS011;2557;51.390;7.494;2023-07-08T07:38:53;7.13;;;5.47;;
5077;SDS011;2557;51.390;7.494;2023-07-08T07:41:19;5.53;;;5.03;;
5077;SDS011;2557;51.390;7.494;2023-07-08T07:43:45;5.63;;;5.13;;
5077;SDS011;2557;51.390;7.494;2023-07-08T07:46:12;5.73;;;5.13;;
5077;SDS011;2557;51.390;7.494;2023-07-08T07:48:38;7.37;;;5.20;;
5077;SDS011;2557;51.390;7.494;2023-07-08T07:51:04;5.60;;;5.00;;
5077;SDS011;2557;51.390;7.494;2023-07-08T07:53:30;7.40;;;5.57;;
5077;SDS011;2557;51.390;7.494;2023-07-08T07:56:00;6.33;;;5.30;;
5077;SDS011;2557;51.390;7.494;2023-07-08T07:58:27;10.30;;;5.53;;
5077;SDS011;2557;51.390;7.494;2023-07-08T08:00:53;7.60;;;5.47;;
5077;SDS011;2557;51.390;7.494;2023-07-08T08:03:19;6.33;;;5.70;;
5077;SDS011;2557;51.390;7.494;2023-07-08T08:05:45;8.07;;;4.87;;
5077;SDS011;2557;51.390;7.494;2023-07-08T08:08:11;5.57;;;4.87;;
5077;SDS011;2557;51.390;7.494;2023-07-08T08:10:37;8.13;;;5.63;;
5077;SDS011;2557;51.390;7.494;2023-07-08T08:13:04;6.27;;;5.57;;
5077;SDS011;2557;51.390;7.494;2023-07-08T08:15:30;6.73;;;5.93;;
5077;SDS011;2557;51.390;7.494;2023-07-08T08:17:56;5.70;;;5.17;;
5077;SDS011;2557;51.390;7.494;2023-07-08T08:20:23;7.93;;;5.60;;
5077;SDS011;2557;51.390;7.494;2023-07-08T08:22:49;8.67;;;6.60;;
5077;SDS011;2557;51.390;7.494;2023-07-08T08:25:16;6.83;;;5.00;;
5077;SDS011;2557;51.390;7.494;2023-07-08T08:27:42;9.40;;;6.07;;
5077;SDS011;2557;51.390;7.494;2023-07-08T08:30:09;8.17;;;6.20;;
5077;SDS011;2557;51.390;7.494;2023-07-08T08:32:35;7.43;;;6.63;;
5077;SDS011;2557;51.390;7.494;2023-07-08T08:35:01;10.33;;;6.80;;
5077;SDS011;2557;51.390;7.494;2023-07-08T08:37:27;6.63;;;5.17;;
5077;SDS011;2557;51.390;7.494;2023-07-08T08:39:53;9.37;;;6.07;;
5077;SDS011;2557;51.390;7.494;2023-07-08T08:42:27;6.60;;;6.00;;
5077;SDS011;2557;51.390;7.494;2023-07-08T08:44:53;8.63;;;6.13;;
5077;SDS011;2557;51.390;7.494;2023-07-08T08:49:50;7.70;;;5.90;;
5077;SDS011;2557;51.390;7.494;2023-07-08T08:52:18;7.20;;;6.40;;
5077;SDS011;2557;51.390;7.494;2023-07-08T08:54:44;6.93;;;6.23;;
5077;SDS011;2557;51.390;7.494;2023-07-08T08:59:55;8.13;;;6.43;;
5077;SDS011;2557;51.390;7.494;2023-07-08T09:02:28;9.50;;;6.70;;
5077;SDS011;2557;51.390;7.494;2023-07-08T09:04:58;7.30;;;5.90;;
5077;SDS011;2557;51.390;7.494;2023-07-08T09:07:27;8.13;;;6.20;;
5077;SDS011;2557;51.390;7.494;2023-07-08T09:10:04;8.10;;;6.10;;
5077;SDS011;2557;51.390;7.494;2023-07-08T09:12:34;8.17;;;5.60;;
5077;SDS011;2557;51.390;7.494;2023-07-08T09:15:00;9.07;;;6.57;;
5077;SDS011;2557;51.390;7.494;2023-07-08T09:17:31;7.67;;;6.40;;
5077;SDS011;2557;51.390;7.494;2023-07-08T09:22:48;6.77;;;5.87;;
5077;SDS011;2557;51.390;7.494;2023-07-08T09:25:24;12.53;;;6.07;;
5077;SDS011;2557;51.390;7.494;2023-07-08T09:27:50;9.67;;;6.63;;
5077;SDS011;2557;51.390;7.494;2023-07-08T09:30:18;6.07;;;5.47;;
5077;SDS011;2557;51.390;7.494;2023-07-08T09:32:45;8.37;;;6.60;;
5077;SDS011;2557;51.390;7.494;2023-07-08T09:35:19;6.70;;;5.40;;
5077;SDS011;2557;51.390;7.494;2023-07-08T09:37:46;7.17;;;5.07;;
5077;SDS011;2557;51.390;7.494;2023-07-08T09:42:42;12.40;;;4.93;;
5077;SDS011;2557;51.390;7.494;2023-07-08T09:45:12;6.50;;;5.67;;
5077;SDS011;2557;51.390;7.494;2023-07-08T09:47:39;6.70;;;6.00;;
5077;SDS011;2557;51.390;7.494;2023-07-08T09:50:24;6.53;;;5.83;;
5077;SDS011;2557;51.390;7.494;2023-07-08T09:52:52;11.53;;;5.70;;
5077;SDS011;2557;51.390;7.494;2023-07-08T09:55:19;6.70;;;4.93;;
5077;SDS011;2557;51.390;7.494;2023-07-08T09:57:45;5.80;;;5.13;;
5077;SDS011;2557;51.390;7.494;2023-07-08T10:00:17;7.53;;;4.37;;
5077;SDS011;2557;51.390;7.494;2023-07-08T10:02:50;5.87;;;4.40;;
5077;SDS011;2557;51.390;7.494;2023-07-08T10:05:25;10.60;;;4.80;;
5077;SDS011;2557;51.390;7.494;2023-07-08T10:07:54;6.63;;;4.30;;
5077;SDS011;2557;51.390;7.494;2023-07-08T10:10:26;5.70;;;4.80;;
5077;SDS011;2557;51.390;7.494;2023-07-08T10:12:57;4.70;;;4.10;;
5077;SDS011;2557;51.390;7.494;2023-07-08T10:15:26;9.10;;;5.50;;
5077;SDS011;2557;51.390;7.494;2023-07-08T10:17:53;5.60;;;4.60;;
5077;SDS011;2557;51.390;7.494;2023-07-08T10:20:19;5.73;;;5.13;;
5077;SDS011;2557;51.390;7.494;2023-07-08T10:22:50;5.20;;;4.70;;
5077;SDS011;2557;51.390;7.494;2023-07-08T10:30:23;6.23;;;4.43;;
5077;SDS011;2557;51.390;7.494;2023-07-08T10:32:55;5.83;;;4.73;;
5077;SDS011;2557;51.390;7.494;2023-07-08T10:35:30;4.70;;;4.20;;
5077;SDS011;2557;51.390;7.494;2023-07-08T10:41:00;4.80;;;4.33;;
5077;SDS011;2557;51.390;7.494;2023-07-08T10:43:33;6.03;;;4.90;;
5077;SDS011;2557;51.390;7.494;2023-07-08T10:49:05;6.10;;;4.03;;
5077;SDS011;2557;51.390;7.494;2023-07-08T10:54:58;5.10;;;4.40;;
5077;SDS011;2557;51.390;7.494;2023-07-08T11:00:33;5.13;;;4.00;;
5077;SDS011;2557;51.390;7.494;2023-07-08T11:05:39;4.57;;;4.17;;
5077;SDS011;2557;51.390;7.494;2023-07-08T11:08:12;6.40;;;4.10;;
5077;SDS011;2557;51.390;7.494;2023-07-08T11:10:48;10.30;;;4.10;;
5077;SDS011;2557;51.390;7.494;2023-07-08T11:13:18;5.33;;;4.50;;
5077;SDS011;2557;51.390;7.494;2023-07-08T11:15:48;7.27;;;4.67;;
5077;SDS011;2557;51.390;7.494;2023-07-08T11:18:18;5.50;;;5.00;;
5077;SDS011;2557;51.390;7.494;2023-07-08T11:23:48;4.97;;;4.27;;
5077;SDS011;2557;51.390;7.494;2023-07-08T11:28:51;7.50;;;4.30;;
5077;SDS011;2557;51.390;7.494;2023-07-08T11:31:19;6.33;;;3.83;;
5077;SDS011;2557;51.390;7.494;2023-07-08T11:33:45;4.70;;;4.17;;
5077;SDS011;2557;51.390;7.494;2023-07-08T11:36:12;5.13;;;4.40;;
5077;SDS011;2557;51.390;7.494;2023-07-08T11:38:38;5.13;;;4.63;;
5077;SDS011;2557;51.390;7.494;2023-07-08T11:41:14;4.50;;;4.10;;
5077;SDS011;2557;51.390;7.494;2023-07-08T11:43:51;4.63;;;4.03;;
5077;SDS011;2557;51.390;7.494;2023-07-08T11:46:18;7.83;;;4.17;;
5077;SDS011;2557;51.390;7.494;2023-07-08T11:48:48;6.53;;;4.00;;
5077;SDS011;2557;51.390;7.494;2023-07-08T11:51:19;6.43;;;4.17;;
5077;SDS011;2557;51.390;7.494;2023-07-08T11:54:28;6.33;;;4.30;;
5077;SDS011;2557;51.390;7.494;2023-07-08T11:59:20;4.30;;;3.87;;
5077;SDS011;2557;51.390;7.494;2023-07-08T12:01:47;4.60;;;3.93;;
5077;SDS011;2557;51.390;7.494;2023-07-08T12:04:24;4.30;;;3.90;;
5077;SDS011;2557;51.390;7.494;2023-07-08T12:07:02;6.93;;;4.37;;
5077;SDS011;2557;51.390;7.494;2023-07-08T12:09:29;4.83;;;4.40;;
5077;SDS011;2557;51.390;7.494;2023-07-08T12:12:02;7.23;;;4.57;;
5077;SDS011;2557;51.390;7.494;2023-07-08T12:14:29;5.60;;;3.93;;
5077;SDS011;2557;51.390;7.494;2023-07-08T12:16:55;4.73;;;4.03;;
5077;SDS011;2557;51.390;7.494;2023-07-08T12:19:21;5.23;;;4.47;;
5077;SDS011;2557;51.390;7.494;2023-07-08T12:21:50;5.27;;;4.10;;
5077;SDS011;2557;51.390;7.494;2023-07-08T12:24:16;6.73;;;4.23;;
5077;SDS011;2557;51.390;7.494;2023-07-08T12:26:43;6.43;;;4.50;;
5077;SDS011;2557;51.390;7.494;2023-07-08T12:29:11;5.17;;;3.90;;
5077;SDS011;2557;51.390;7.494;2023-07-08T12:31:38;7.17;;;4.63;;
5077;SDS011;2557;51.390;7.494;2023-07-08T12:34:05;6.03;;;4.57;;
5077;SDS011;2557;51.390;7.494;2023-07-08T12:36:36;6.43;;;4.97;;
5077;SDS011;2557;51.390;7.494;2023-07-08T12:39:02;4.40;;;3.30;;
5077;SDS011;2557;51.390;7.494;2023-07-08T12:41:29;4.97;;;4.57;;
5077;SDS011;2557;51.390;7.494;2023-07-08T12:43:57;5.00;;;4.50;;
5077;SDS011;2557;51.390;7.494;2023-07-08T12:46:23;4.00;;;3.70;;
5077;SDS011;2557;51.390;7.494;2023-07-08T12:48:49;9.23;;;4.40;;
5077;SDS011;2557;51.390;7.494;2023-07-08T12:51:19;5.87;;;4.40;;
5077;SDS011;2557;51.390;7.494;2023-07-08T12:53:45;6.13;;;4.10;;
5077;SDS011;2557;51.390;7.494;2023-07-08T12:56:12;4.27;;;3.97;;
5077;SDS011;2557;51.390;7.494;2023-07-08T12:58:42;7.20;;;5.40;;
5077;SDS011;2557;51.390;7.494;2023-07-08T13:01:09;5.43;;;4.03;;
5077;SDS011;2557;51.390;7.494;2023-07-08T13:03:40;6.80;;;4.40;;
5077;SDS011;2557;51.390;7.494;2023-07-08T13:06:07;5.97;;;4.43;;
5077;SDS011;2557;51.390;7.494;2023-07-08T13:08:35;5.43;;;3.97;;
5077;SDS011;2557;51.390;7.494;2023-07-08T13:11:02;5.60;;;4.30;;
5077;SDS011;2557;51.390;7.494;2023-07-08T13:13:37;4.40;;;4.00;;
5077;SDS011;2557;51.390;7.494;2023-07-08T13:16:03;6.43;;;4.37;;
5077;SDS011;2557;51.390;7.494;2023-07-08T13:20:56;5.30;;;4.80;;
5077;SDS011;2557;51.390;7.494;2023-07-08T13:23:22;4.50;;;4.00;;
5077;SDS011;2557;51.390;7.494;2023-07-08T13:25:48;6.20;;;4.23;;
5077;SDS011;2557;51.390;7.494;2023-07-08T13:28:16;4.40;;;4.00;;
5077;SDS011;2557;51.390;7.494;2023-07-08T13:31:02;4.87;;;4.07;;
5077;SDS011;2557;51.390;7.494;2023-07-08T13:33:31;4.20;;;3.77;;
5077;SDS011;2557;51.390;7.494;2023-07-08T13:35:58;4.90;;;4.07;;
5077;SDS011;2557;51.390;7.494;2023-07-08T13:38:28;5.57;;;4.40;;
5077;SDS011;2557;51.390;7.494;2023-07-08T13:40:59;5.43;;;4.60;;
5077;SDS011;2557;51.390;7.494;2023-07-08T13:43:27;8.30;;;4.70;;
5077;SDS011;2557;51.390;7.494;2023-07-08T13:45:54;5.10;;;4.50;;
5077;SDS011;2557;51.390;7.494;2023-07-08T13:51:17;8.17;;;3.73;;
5077;SDS011;2557;51.390;7.494;2023-07-08T13:53:45;4.80;;;4.30;;
5077;SDS011;2557;51.390;7.494;2023-07-08T13:58:44;4.60;;;3.80;;
5077;SDS011;2557;51.390;7.494;2023-07-08T14:01:15;6.90;;;4.33;;
5077;SDS011;2557;51.390;7.494;2023-07-08T14:03:41;7.10;;;4.70;;
5077;SDS011;2557;51.390;7.494;2023-07-08T14:06:12;4.70;;;4.20;;
5077;SDS011;2557;51.390;7.494;2023-07-08T14:08:39;6.87;;;4.27;;
5077;SDS011;2557;51.390;7.494;2023-07-08T14:11:05;5.00;;;4.50;;
5077;SDS011;2557;51.390;7.494;2023-07-08T14:13:30;4.90;;;4.50;;
5077;SDS011;2557;51.390;7.494;2023-07-08T14:15:56;7.13;;;4.17;;
5077;SDS011;2557;51.390;7.494;2023-07-08T14:18:23;5.57;;;4.07;;
5077;SDS011;2557;51.390;7.494;2023-07-08T14:20:49;4.33;;;3.83;;
5077;SDS011;2557;51.390;7.494;2023-07-08T14:23:15;6.60;;;4.73;;
5077;SDS011;2557;51.390;7.494;2023-07-08T14:25:42;5.13;;;4.70;;
5077;SDS011;2557;51.390;7.494;2023-07-08T14:28:08;4.73;;;3.80;;
5077;SDS011;2557;51.390;7.494;2023-07-08T14:30:35;7.63;;;4.00;;
5077;SDS011;2557;51.390;7.494;2023-07-08T14:33:03;4.77;;;4.20;;
5077;SDS011;2557;51.390;7.494;2023-07-08T14:35:30;5.87;;;4.70;;
5077;SDS011;2557;51.390;7.494;2023-07-08T14:37:56;6.30;;;4.50;;
5077;SDS011;2557;51.390;7.494;2023-07-08T14:43:00;5.60;;;4.87;;
5077;SDS011;2557;51.390;7.494;2023-07-08T14:45:28;6.23;;;4.50;;
5077;SDS011;2557;51.390;7.494;2023-07-08T14:47:55;5.33;;;3.83;;
5077;SDS011;2557;51.390;7.494;2023-07-08T14:50:21;7.03;;;5.53;;
5077;SDS011;2557;51.390;7.494;2023-07-08T14:52:47;6.40;;;4.83;;
5077;SDS011;2557;51.390;7.494;2023-07-08T14:55:13;8.50;;;5.37;;
5077;SDS011;2557;51.390;7.494;2023-07-08T14:57:43;11.10;;;5.97;;
5077;SDS011;2557;51.390;7.494;2023-07-08T15:00:15;6.00;;;5.03;;
5077;SDS011;2557;51.390;7.494;2023-07-08T15:02:42;7.20;;;5.47;;
5077;SDS011;2557;51.390;7.494;2023-07-08T15:05:11;8.17;;;6.17;;
5077;SDS011;2557;51.390;7.494;2023-07-08T15:07:39;7.20;;;5.20;;
5077;SDS011;2557;51.390;7.494;2023-07-08T15:10:05;8.93;;;5.33;;
5077;SDS011;2557;51.390;7.494;2023-07-08T15:12:31;5.97;;;5.40;;
5077;SDS011;2557;51.390;7.494;2023-07-08T15:14:57;6.53;;;5.90;;
5077;SDS011;2557;51.390;7.494;2023-07-08T15:17:23;5.73;;;5.13;;
5077;SDS011;2557;51.390;7.494;2023-07-08T15:19:50;12.33;;;5.47;;
5077;SDS011;2557;51.390;7.494;2023-07-08T15:22:16;24.60;;;7.03;;
5077;SDS011;2557;51.390;7.494;2023-07-08T15:24:42;8.43;;;5.30;;
5077;SDS011;2557;51.390;7.494;2023-07-08T15:27:11;5.50;;;5.00;;
5077;SDS011;2557;51.390;7.494;2023-07-08T15:29:38;6.40;;;5.20;;
5077;SDS011;2557;51.390;7.494;2023-07-08T15:32:09;6.47;;;5.53;;
5077;SDS011;2557;51.390;7.494;2023-07-08T15:34:38;7.60;;;5.40;;
5077;SDS011;2557;51.390;7.494;2023-07-08T15:37:05;7.50;;;4.93;;
5077;SDS011;2557;51.390;7.494;2023-07-08T15:39:31;9.30;;;5.43;;
5077;SDS011;2557;51.390;7.494;2023-07-08T15:41:57;10.47;;;5.70;;
5077;SDS011;2557;51.390;7.494;2023-07-08T15:44:23;5.53;;;5.03;;
5077;SDS011;2557;51.390;7.494;2023-07-08T15:46:49;10.03;;;6.33;;
5077;SDS011;2557;51.390;7.494;2023-07-08T15:49:20;6.70;;;5.07;;
5077;SDS011;2557;51.390;7.494;2023-07-08T15:51:49;6.33;;;5.37;;
5077;SDS011;2557;51.390;7.494;2023-07-08T15:54:16;6.30;;;5.00;;
5077;SDS011;2557;51.390;7.494;2023-07-08T15:56:43;9.47;;;6.10;;
5077;SDS011;2557;51.390;7.494;2023-07-08T15:59:11;6.50;;;5.80;;
5077;SDS011;2557;51.390;7.494;2023-07-08T16:01:39;10.97;;;5.20;;
5077;SDS011;2557;51.390;7.494;2023-07-08T16:04:07;8.30;;;5.00;;
5077;SDS011;2557;51.390;7.494;2023-07-08T16:06:36;6.83;;;5.33;;
5077;SDS011;2557;51.390;7.494;2023-07-08T16:09:02;9.90;;;5.40;;